Terminal Aerodrome Forecast
Issued by NWS

Home | Current Version | Previous Version | Text Only | Print | Product List | Glossary Off
Versions: 1 2 3 4 5 6 7 8 9 10 11 12 13 14 15 16 17 18 19 20 21 22 23 24 25

000
FTUS43 KTOP 201700
TAFMHK
TAF
KMHK 201720Z 2018/2118 08006KT P6SM FEW200
     FM211100 09007KT P6SM BKN035
     FM211500 09004KT P6SM BKN015 PROB30 2115/2118 4SM -FZDZ BR
      BKN015=

USA.gov is the U.S. government's official web portal to all federal, state and local government web resources and services.